Time;durP1;ratioP1;P1;durP2;ratioP2;P2;SDS_P1;SDS_P2;PMS_P1;PMS_P2;Temp;Humidity;BMP_temperature;BMP_pressure;BME280_temperature;BME280_humidity;BME280_pressure;Samples;Min_cycle;Max_cycle;Signal;HPM_P1;HPM_P2
2022/03/12 00:00:18;;;;;;;18.65;14.43;;;11.00;64.70;;;;;;10899507;32;20031;-70
2022/03/12 00:06:24;;;;;;;22.10;14.85;;;11.00;64.60;;;;;;10903751;32;20054;-70
2022/03/12 00:12:27;;;;;;;17.27;12.50;;;10.90;64.50;;;;;;10903469;32;20024;-71
2022/03/12 00:18:30;;;;;;;19.60;15.48;;;10.90;64.70;;;;;;10910478;32;20067;-70
2022/03/12 00:24:34;;;;;;;22.77;14.25;;;10.80;64.80;;;;;;10910512;32;20019;-70
2022/03/12 00:30:36;;;;;;;18.08;12.75;;;10.70;65.00;;;;;;10909276;32;20039;-70
2022/03/12 00:36:39;;;;;;;21.85;14.15;;;10.70;65.20;;;;;;10897416;32;20027;-70
2022/03/12 00:42:42;;;;;;;20.10;14.30;;;10.50;65.00;;;;;;10908525;32;20027;-70
2022/03/12 00:48:45;;;;;;;21.12;12.82;;;10.40;65.30;;;;;;10905557;32;20094;-70
2022/03/12 00:54:48;;;;;;;21.52;13.27;;;10.20;65.40;;;;;;10905368;32;20031;-70
2022/03/12 01:00:50;;;;;;;19.10;12.50;;;10.20;65.60;;;;;;10909559;32;20058;-70
2022/03/12 01:06:52;;;;;;;19.55;12.20;;;10.20;65.60;;;;;;10909210;32;20398;-70
2022/03/12 01:12:54;;;;;;;16.75;11.80;;;10.10;65.50;;;;;;10908820;32;20035;-70
2022/03/12 01:18:56;;;;;;;17.62;11.27;;;10.10;66.00;;;;;;10908614;32;20050;-70
2022/03/12 01:24:59;;;;;;;20.33;14.05;;;10.00;66.00;;;;;;10907819;32;20084;-71
2022/03/12 01:31:01;;;;;;;14.45;10.38;;;9.90;65.90;;;;;;10908342;32;20050;-70
2022/03/12 01:37:04;;;;;;;14.80;9.80;;;9.70;66.80;;;;;;10908122;32;20332;-70
2022/03/12 01:43:07;;;;;;;10.02;6.57;;;9.60;67.20;;;;;;10907961;32;20054;-70
2022/03/12 01:49:16;;;;;;;14.55;9.45;;;9.50;67.70;;;;;;10907648;32;20069;-70
2022/03/12 01:55:19;;;;;;;;;;;9.40;68.00;;;;;;10907683;32;20049;-70
2022/03/12 02:01:21;;;;;;;19.30;10.38;;;9.30;67.80;;;;;;10903049;32;19941;-70
2022/03/12 02:07:23;;;;;;;13.57;8.18;;;9.30;68.30;;;;;;10903496;32;20023;-70
2022/03/12 02:13:28;;;;;;;13.60;8.85;;;9.30;68.00;;;;;;10906854;32;20023;-70
2022/03/12 02:19:31;;;;;;;12.48;8.80;;;9.30;68.10;;;;;;10906476;32;20046;-70
2022/03/12 02:25:34;;;;;;;14.20;8.30;;;9.20;68.10;;;;;;10906306;32;20023;-70
2022/03/12 02:31:38;;;;;;;15.70;10.70;;;9.20;68.10;;;;;;10906243;32;20038;-70
2022/03/12 02:37:47;;;;;;;10.80;7.93;;;9.00;68.30;;;;;;10902644;32;20050;-70
2022/03/12 02:43:49;;;;;;;;;;;8.90;68.40;;;;;;10889230;32;20375;-70
2022/03/12 02:49:53;;;;;;;16.55;11.52;;;9.00;68.30;;;;;;10905600;32;19941;-70
2022/03/12 02:55:55;;;;;;;17.95;11.32;;;8.90;68.50;;;;;;10905435;32;20356;-70
2022/03/12 03:02:00;;;;;;;17.42;11.27;;;8.90;68.70;;;;;;10905196;32;20051;-70
2022/03/12 03:08:04;;;;;;;17.02;10.57;;;8.80;68.80;;;;;;10900857;32;20390;-70
2022/03/12 03:14:12;;;;;;;16.42;9.48;;;8.80;68.50;;;;;;10904860;32;20019;-70
2022/03/12 03:20:16;;;;;;;9.73;7.57;;;8.70;68.40;;;;;;10904666;32;20445;-71
2022/03/12 03:26:39;;;;;;;12.43;8.70;;;8.50;68.90;;;;;;10900657;32;20084;-70
2022/03/12 03:32:41;;;;;;;13.20;8.60;;;8.60;69.40;;;;;;10900036;32;20049;-70
2022/03/12 03:38:43;;;;;;;12.50;7.25;;;8.60;69.40;;;;;;10900092;32;20391;-70
2022/03/12 03:44:45;;;;;;;12.20;7.80;;;8.50;69.50;;;;;;10904114;32;20050;-70
2022/03/12 03:50:49;;;;;;;15.95;9.45;;;8.50;69.50;;;;;;10908450;32;20050;-70
2022/03/12 03:56:52;;;;;;;14.07;8.45;;;8.40;69.50;;;;;;10907788;32;20031;-70
2022/03/12 04:03:04;;;;;;;10.25;7.35;;;8.40;69.70;;;;;;10911396;32;20335;-70
2022/03/12 04:09:07;;;;;;;9.82;7.43;;;8.30;69.70;;;;;;10911361;32;20027;-70
2022/03/12 04:15:10;;;;;;;11.15;7.78;;;8.20;70.10;;;;;;10911046;32;20423;-70
2022/03/12 04:21:14;;;;;;;12.95;7.93;;;8.20;70.00;;;;;;10910907;32;20008;-70
2022/03/12 04:27:17;;;;;;;14.02;9.48;;;8.00;69.00;;;;;;10897327;32;20426;-70
2022/03/12 04:33:19;;;;;;;12.15;7.55;;;7.90;69.80;;;;;;10910352;32;20015;-70
2022/03/12 04:39:21;;;;;;;11.25;7.78;;;8.00;69.90;;;;;;10910184;32;20060;-70
2022/03/12 04:45:25;;;;;;;11.45;7.28;;;8.00;70.20;;;;;;10909789;32;20019;-70
2022/03/12 04:51:28;;;;;;;9.35;6.47;;;7.90;70.40;;;;;;10909823;32;20035;-70
2022/03/12 04:57:30;;;;;;;12.02;6.80;;;7.90;71.00;;;;;;10896205;32;20081;-70
2022/03/12 05:03:32;;;;;;;11.60;7.53;;;7.90;70.90;;;;;;10909387;32;20335;-70
2022/03/12 05:09:35;;;;;;;9.40;6.40;;;7.80;71.60;;;;;;10909095;32;20023;-71
2022/03/12 05:15:40;;;;;;;11.73;7.47;;;7.80;71.50;;;;;;10908844;32;20062;-70
2022/03/12 05:21:42;;;;;;;10.73;6.45;;;7.90;71.60;;;;;;10908772;32;20053;-70
2022/03/12 05:28:08;;;;;;;11.75;7.72;;;8.10;71.40;;;;;;10904692;32;20046;-70
2022/03/12 05:34:10;;;;;;;13.10;7.78;;;8.10;71.40;;;;;;10904112;32;20054;-69
2022/03/12 05:40:18;;;;;;;12.63;8.45;;;8.10;71.70;;;;;;10907981;32;20061;-70
2022/03/12 05:46:21;;;;;;;12.30;8.55;;;8.10;70.80;;;;;;10907896;32;20046;-70
2022/03/12 05:52:25;;;;;;;9.13;6.28;;;8.10;70.80;;;;;;10907781;32;20027;-70
2022/03/12 05:58:27;;;;;;;11.43;6.72;;;8.00;70.80;;;;;;10907467;32;20031;-70
2022/03/12 06:04:29;;;;;;;10.38;6.90;;;8.00;71.30;;;;;;10907276;32;20054;-70
2022/03/12 06:10:35;;;;;;;15.93;9.45;;;8.00;71.30;;;;;;10906615;32;20364;-70
2022/03/12 06:16:42;;;;;;;12.82;9.02;;;8.00;71.50;;;;;;10906596;32;20090;-70
2022/03/12 06:22:44;;;;;;;12.30;8.32;;;8.00;70.90;;;;;;10906717;32;20023;-70
2022/03/12 06:29:13;;;;;;;11.57;6.90;;;7.90;70.90;;;;;;10906366;32;20027;-70
2022/03/12 06:35:16;;;;;;;14.13;8.27;;;7.80;70.60;;;;;;10903504;32;20434;-70
2022/03/12 06:41:20;;;;;;;11.73;6.43;;;7.70;70.60;;;;;;10901643;32;20027;-70
2022/03/12 06:47:30;;;;;;;12.73;7.90;;;7.60;70.50;;;;;;10905834;32;20023;-70
2022/03/12 06:53:32;;;;;;;9.20;5.55;;;7.40;71.60;;;;;;10892183;32;20200;-70
2022/03/12 06:59:35;;;;;;;10.30;6.30;;;7.50;72.20;;;;;;10901364;32;20011;-70
2022/03/12 07:05:38;;;;;;;11.38;8.15;;;7.60;72.10;;;;;;10903239;32;20387;-70
2022/03/12 07:11:48;;;;;;;12.37;8.07;;;7.50;71.20;;;;;;10905871;32;20097;-72
2022/03/12 07:17:51;;;;;;;15.00;9.75;;;7.60;71.40;;;;;;10909108;27;20156;-73
2022/03/12 07:23:54;;;;;;;17.25;9.65;;;7.50;69.90;;;;;;10905306;32;20027;-72
2022/03/12 07:30:00;;;;;;;14.77;8.00;;;7.40;70.20;;;;;;10905873;32;20038;-72
2022/03/12 07:42:29;;;;;;;14.60;8.35;;;7.30;70.10;;;;;;10903625;32;20054;-72
2022/03/12 07:48:33;;;;;;;12.45;7.28;;;7.40;70.30;;;;;;10905195;32;20034;-72
2022/03/12 07:54:36;;;;;;;13.52;8.70;;;7.40;71.20;;;;;;10904345;32;20031;-72
2022/03/12 08:00:38;;;;;;;14.57;8.65;;;7.30;68.80;;;;;;10904974;32;20054;-72
2022/03/12 08:06:42;;;;;;;11.23;6.62;;;7.30;69.30;;;;;;10897279;32;20414;-72
2022/03/12 08:12:46;;;;;;;12.10;6.93;;;7.30;70.20;;;;;;10863812;32;20028;-72
2022/03/12 08:18:48;;;;;;;14.25;7.07;;;7.40;69.40;;;;;;10856953;32;20042;-72
2022/03/12 08:24:51;;;;;;;10.40;6.35;;;7.40;69.10;;;;;;10864343;32;20070;-73
2022/03/12 08:30:54;;;;;;;13.38;6.95;;;7.50;68.10;;;;;;10863241;32;20035;-72
2022/03/12 08:36:56;;;;;;;8.88;5.20;;;7.60;67.60;;;;;;10877232;32;20038;-72
2022/03/12 08:42:58;;;;;;;10.60;6.43;;;7.70;68.00;;;;;;10907946;32;20418;-72
2022/03/12 08:49:00;;;;;;;11.05;5.93;;;7.80;67.70;;;;;;10874930;32;20035;-72
2022/03/12 08:55:04;;;;;;;7.95;4.82;;;7.90;67.80;;;;;;10871470;32;20062;-72
2022/03/12 09:01:08;;;;;;;9.57;5.40;;;8.00;68.70;;;;;;10889521;32;20054;-69
2022/03/12 09:07:10;;;;;;;11.05;6.78;;;7.90;66.40;;;;;;10859643;32;20023;-71
2022/03/12 09:13:16;;;;;;;7.75;5.30;;;7.90;65.70;;;;;;10872733;32;20031;-72
2022/03/12 09:19:18;;;;;;;11.52;6.35;;;8.00;66.40;;;;;;10868090;32;20027;-72
2022/03/12 09:25:20;;;;;;;11.10;5.47;;;8.00;65.00;;;;;;10872560;32;20065;-72
2022/03/12 09:31:22;;;;;;;12.25;5.75;;;8.00;65.10;;;;;;10872149;32;20024;-72
2022/03/12 09:37:25;;;;;;;11.73;7.22;;;8.10;64.70;;;;;;10871814;32;20062;-72
2022/03/12 09:43:28;;;;;;;13.15;6.57;;;8.10;62.70;;;;;;10868175;32;20050;-72
2022/03/12 09:49:33;;;;;;;22.58;7.62;;;8.30;64.40;;;;;;10867625;32;20035;-72
2022/03/12 09:55:35;;;;;;;10.18;6.05;;;8.30;61.80;;;;;;10870184;32;20031;-72
2022/03/12 10:01:37;;;;;;;13.30;6.93;;;8.50;62.60;;;;;;10871115;32;20438;-72
2022/03/12 10:07:41;;;;;;;9.50;6.68;;;8.60;62.00;;;;;;10870812;32;20024;-72
2022/03/12 10:13:44;;;;;;;13.45;9.07;;;8.70;61.60;;;;;;10873088;32;20039;-71
2022/03/12 10:19:47;;;;;;;11.52;6.15;;;8.80;60.10;;;;;;10857781;32;20023;-71
2022/03/12 10:25:50;;;;;;;15.30;5.70;;;8.90;61.60;;;;;;10855229;32;20392;-72
2022/03/12 10:31:52;;;;;;;12.75;6.60;;;9.20;63.30;;;;;;10869202;32;20027;-72
2022/03/12 10:37:54;;;;;;;9.20;4.82;;;9.30;61.80;;;;;;10868643;32;20031;-71
2022/03/12 10:43:57;;;;;;;10.57;7.03;;;9.40;60.80;;;;;;10882038;32;20024;-71
2022/03/12 10:50:04;;;;;;;7.87;5.20;;;9.50;58.00;;;;;;10906656;32;20032;-71
2022/03/12 10:56:07;;;;;;;9.95;6.55;;;9.60;57.90;;;;;;10903590;32;20343;-72
2022/03/12 11:02:10;;;;;;;14.65;8.40;;;9.90;58.20;;;;;;10906223;32;20019;-72
2022/03/12 11:08:18;;;;;;;8.85;5.18;;;10.00;59.40;;;;;;10904543;32;20297;-71
2022/03/12 11:14:21;;;;;;;9.03;6.10;;;10.10;59.50;;;;;;10895845;32;20035;-71
2022/03/12 11:20:22;;;;;;;10.65;5.70;;;10.30;57.70;;;;;;10868970;32;20388;-71
2022/03/12 11:26:25;;;;;;;14.70;6.62;;;10.70;57.80;;;;;;10865167;32;20046;-71
2022/03/12 11:32:30;;;;;;;7.45;3.92;;;11.20;57.70;;;;;;10896655;32;20024;-71
2022/03/12 11:38:32;;;;;;;9.40;6.55;;;11.50;55.90;;;;;;10905352;32;20068;-71
2022/03/12 11:44:35;;;;;;;10.80;6.93;;;11.90;55.70;;;;;;10891805;32;20301;-71
2022/03/12 11:50:38;;;;;;;10.77;8.07;;;12.00;53.20;;;;;;10905124;32;20024;-72
2022/03/12 11:56:40;;;;;;;9.68;6.65;;;12.10;54.30;;;;;;10871501;32;20058;-72
2022/03/12 12:02:42;;;;;;;12.60;8.48;;;12.10;52.40;;;;;;10864578;32;20434;-72
2022/03/12 12:08:46;;;;;;;9.57;6.82;;;12.20;53.60;;;;;;10885537;32;20027;-72
2022/03/12 12:14:56;;;;;;;8.40;5.45;;;12.20;50.60;;;;;;10938280;32;20050;-72
2022/03/12 12:21:20;;;;;;;9.52;5.30;;;12.40;50.40;;;;;;10884805;32;20509;-71
2022/03/12 12:27:56;;;;;;;7.05;4.57;;;12.30;48.20;;;;;;10888128;32;20066;-72
2022/03/12 12:34:09;;;;;;;13.38;6.43;;;12.50;47.30;;;;;;10894122;32;20107;-71
2022/03/12 12:40:21;;;;;;;12.98;6.40;;;12.70;48.60;;;;;;10895768;32;20055;-71
2022/03/12 12:46:25;;;;;;;13.85;6.60;;;12.60;47.10;;;;;;10911319;32;20088;-71
2022/03/12 12:52:32;;;;;;;9.57;6.07;;;12.60;45.80;;;;;;10911063;32;20034;-71
2022/03/12 12:58:58;;;;;;;9.55;5.97;;;12.70;45.50;;;;;;10897740;32;20426;-71
2022/03/12 13:05:05;;;;;;;14.65;5.90;;;12.70;45.00;;;;;;10719941;33;20028;-71
2022/03/12 13:11:32;;;;;;;8.52;5.65;;;12.70;43.40;;;;;;10722404;33;20024;-72
2022/03/12 13:17:36;;;;;;;6.35;4.15;;;12.70;43.70;;;;;;10718753;33;20475;-71
2022/03/12 13:23:46;;;;;;;6.68;4.87;;;12.70;44.10;;;;;;10722222;33;20044;-72
2022/03/12 13:30:04;;;;;;;7.78;5.18;;;12.70;42.80;;;;;;10739358;33;20055;-71
2022/03/12 13:36:08;;;;;;;12.23;7.53;;;12.50;44.70;;;;;;10743237;33;20032;-71
2022/03/12 13:42:14;;;;;;;9.15;5.78;;;12.70;43.00;;;;;;10914463;32;20027;-71
2022/03/12 13:48:17;;;;;;;12.13;5.85;;;12.80;42.80;;;;;;10933481;32;20038;-71
2022/03/12 13:54:23;;;;;;;8.25;4.45;;;12.80;41.60;;;;;;10946845;32;20481;-72
2022/03/12 14:00:26;;;;;;;9.75;5.50;;;12.80;43.70;;;;;;10915740;32;20049;-71
2022/03/12 14:06:31;;;;;;;7.72;5.78;;;13.10;42.60;;;;;;10890560;32;20105;-71
2022/03/12 14:12:33;;;;;;;9.80;6.30;;;13.30;41.20;;;;;;10877788;32;20069;-71
2022/03/12 14:18:37;;;;;;;8.55;5.28;;;13.40;41.40;;;;;;10874426;32;20042;-71
2022/03/12 14:24:40;;;;;;;13.38;6.18;;;13.50;42.70;;;;;;10875593;32;20062;-71
2022/03/12 14:30:42;;;;;;;8.00;6.05;;;13.50;41.90;;;;;;10873282;32;20050;-71
2022/03/12 14:36:45;;;;;;;16.12;7.05;;;13.60;42.90;;;;;;10895994;32;20061;-71
2022/03/12 14:42:51;;;;;;;7.97;5.10;;;13.60;43.20;;;;;;10891392;32;20042;-71
2022/03/12 14:48:57;;;;;;;10.32;6.40;;;13.60;41.60;;;;;;10873660;32;20032;-71
2022/03/12 14:55:04;;;;;;;7.22;4.95;;;13.70;43.80;;;;;;10867416;32;20054;-71
2022/03/12 15:01:07;;;;;;;6.20;4.37;;;13.90;42.90;;;;;;10887201;32;20308;-71
2022/03/12 15:07:12;;;;;;;7.82;4.07;;;14.10;43.00;;;;;;10876181;32;20031;-70
2022/03/12 15:13:14;;;;;;;9.77;6.32;;;14.20;43.70;;;;;;10885312;32;20043;-71
2022/03/12 15:19:16;;;;;;;7.83;4.90;;;14.50;41.90;;;;;;10455436;27;13234301;-71
2022/03/12 15:25:19;;;;;;;7.72;5.12;;;14.80;42.00;;;;;;10841735;32;20120;-71
2022/03/12 15:31:21;;;;;;;7.60;4.20;;;15.30;42.70;;;;;;10845033;32;20050;-71
2022/03/12 15:37:41;;;;;;;8.52;5.35;;;15.30;43.60;;;;;;10840881;32;20055;-71
2022/03/12 15:43:44;;;;;;;11.02;6.00;;;15.60;42.90;;;;;;10843712;32;20027;-71
2022/03/12 15:49:48;;;;;;;7.35;4.87;;;16.20;42.50;;;;;;10868744;32;20027;-71
2022/03/12 15:55:51;;;;;;;7.78;5.12;;;16.60;42.40;;;;;;10894561;32;20023;-71
2022/03/12 16:01:54;;;;;;;19.33;6.10;;;17.00;42.30;;;;;;10860949;32;20035;-71
2022/03/12 16:07:56;;;;;;;7.18;4.37;;;17.40;42.10;;;;;;10894390;32;20027;-71
2022/03/12 16:13:58;;;;;;;9.13;6.82;;;17.40;41.90;;;;;;10889893;32;20019;-71
2022/03/12 16:20:02;;;;;;;10.00;6.97;;;17.30;42.30;;;;;;10904961;32;20023;-71
2022/03/12 16:26:04;;;;;;;8.13;4.28;;;17.50;41.80;;;;;;10900397;32;20019;-71
2022/03/12 16:32:07;;;;;;;7.03;4.55;;;16.90;43.00;;;;;;10904857;32;20422;-71
2022/03/12 16:38:12;;;;;;;6.18;4.30;;;16.20;44.00;;;;;;10903335;32;20421;-71
2022/03/12 16:44:15;;;;;;;5.87;3.20;;;16.00;45.20;;;;;;10900342;32;20313;-71
2022/03/12 16:50:21;;;;;;;7.78;4.20;;;15.70;45.80;;;;;;10903026;32;20426;-71
2022/03/12 16:56:24;;;;;;;4.85;2.20;;;15.30;45.80;;;;;;10906118;32;20058;-71
2022/03/12 17:02:27;;;;;;;5.40;2.55;;;14.50;47.40;;;;;;10910131;32;20030;-71
2022/03/12 17:08:29;;;;;;;9.10;4.70;;;13.70;48.90;;;;;;10873058;32;20019;-71
2022/03/12 17:14:32;;;;;;;7.80;4.43;;;13.10;49.30;;;;;;10873066;32;20086;-71
2022/03/12 17:20:36;;;;;;;8.55;5.30;;;12.70;49.70;;;;;;10869844;32;20046;-71
2022/03/12 17:26:40;;;;;;;7.30;3.55;;;12.40;50.60;;;;;;10878222;32;20038;-71
2022/03/12 17:32:44;;;;;;;7.28;4.75;;;12.10;51.20;;;;;;10906443;32;20074;-71
2022/03/12 17:38:46;;;;;;;8.23;4.20;;;11.80;52.10;;;;;;10905826;32;20054;-71
2022/03/12 17:44:49;;;;;;;10.70;6.70;;;11.60;52.60;;;;;;10907492;32;20426;-71
2022/03/12 17:50:51;;;;;;;13.02;7.03;;;11.40;52.70;;;;;;10909633;32;20023;-71
2022/03/12 17:56:53;;;;;;;13.82;8.98;;;11.30;53.00;;;;;;10904968;32;20050;-71
2022/03/12 18:02:56;;;;;;;13.93;9.32;;;11.20;53.50;;;;;;10906727;32;20387;-71
2022/03/12 18:08:58;;;;;;;18.10;13.77;;;11.00;54.30;;;;;;10908550;32;20023;-71
2022/03/12 18:15:02;;;;;;;14.30;9.57;;;10.70;55.20;;;;;;10889786;32;20050;-71
2022/03/12 18:21:06;;;;;;;14.27;9.18;;;10.60;56.00;;;;;;10908661;32;20007;-71
2022/03/12 18:27:13;;;;;;;13.62;8.55;;;10.40;56.60;;;;;;10908062;32;20046;-71
2022/03/12 18:33:15;;;;;;;16.90;11.77;;;10.20;57.30;;;;;;10907928;32;20023;-71
2022/03/12 18:39:18;;;;;;;19.17;10.57;;;10.10;57.50;;;;;;10907819;32;20328;-71
2022/03/12 18:45:21;;;;;;;21.80;14.90;;;10.00;58.10;;;;;;10907674;32;20343;-71
2022/03/12 18:51:25;;;;;;;18.45;10.93;;;9.90;58.70;;;;;;10907291;32;20019;-71
2022/03/12 18:57:27;;;;;;;16.30;11.18;;;9.80;58.60;;;;;;10902950;32;20020;-71
2022/03/12 19:03:29;;;;;;;21.55;15.50;;;9.70;59.10;;;;;;10903441;32;20023;-71
2022/03/12 19:09:32;;;;;;;17.67;13.73;;;9.60;59.40;;;;;;10906817;32;20011;-71
2022/03/12 19:15:45;;;;;;;25.35;18.15;;;9.70;59.60;;;;;;10906463;32;20050;-71
2022/03/12 19:21:49;;;;;;;20.60;14.07;;;9.60;60.00;;;;;;10889237;32;20062;-71
2022/03/12 19:27:53;;;;;;;20.48;13.35;;;9.50;59.90;;;;;;10905416;32;20054;-71
2022/03/12 19:33:56;;;;;;;25.35;20.77;;;9.30;60.40;;;;;;10904769;32;20335;-71
2022/03/12 19:39:58;;;;;;;20.25;13.80;;;9.20;60.50;;;;;;10905994;32;20027;-71
2022/03/12 19:46:06;;;;;;;17.00;13.10;;;9.10;60.90;;;;;;10906021;32;20015;-71
2022/03/12 19:52:08;;;;;;;18.25;14.57;;;8.90;61.40;;;;;;10905920;32;20045;-71
2022/03/12 19:58:11;;;;;;;14.75;12.10;;;8.70;61.80;;;;;;10905765;32;20027;-71
2022/03/12 20:04:24;;;;;;;15.75;10.88;;;8.70;62.30;;;;;;10905703;32;20078;-71
2022/03/12 20:11:10;;;;;;;18.42;13.95;;;8.50;62.60;;;;;;10905534;32;20327;-71
2022/03/12 20:17:14;;;;;;;22.00;15.40;;;8.50;62.80;;;;;;10903184;32;20081;-72
2022/03/12 20:23:16;;;;;;;21.85;15.75;;;8.50;63.00;;;;;;10905194;32;20023;-72
2022/03/12 20:29:22;;;;;;;23.75;17.73;;;8.40;63.00;;;;;;10905194;32;20020;-71
2022/03/12 20:35:24;;;;;;;25.88;18.00;;;8.30;63.30;;;;;;10907408;32;20054;-71
2022/03/12 20:41:30;;;;;;;62.10;41.40;;;8.30;63.60;;;;;;10912132;32;20323;-71
2022/03/12 20:47:34;;;;;;;45.45;31.60;;;8.20;63.80;;;;;;10909823;32;20097;-71
2022/03/12 20:53:36;;;;;;;57.60;39.72;;;8.20;63.80;;;;;;10909106;32;20053;-71
2022/03/12 20:59:38;;;;;;;40.65;26.90;;;8.20;64.10;;;;;;10907813;32;20426;-71
2022/03/12 21:05:41;;;;;;;39.13;27.20;;;8.20;63.90;;;;;;10911398;32;20339;-71
2022/03/12 21:11:45;;;;;;;28.08;23.70;;;8.10;63.60;;;;;;10910876;32;20016;-71
2022/03/12 21:17:48;;;;;;;31.17;21.85;;;8.00;63.60;;;;;;10909575;32;20031;-71
2022/03/12 21:23:51;;;;;;;24.20;17.33;;;7.90;64.60;;;;;;10896680;32;20020;-71
2022/03/12 21:29:53;;;;;;;27.25;19.67;;;7.90;64.70;;;;;;10910404;32;20050;-71
2022/03/12 21:35:57;;;;;;;31.55;23.80;;;7.70;64.40;;;;;;10910128;32;20391;-71
2022/03/12 21:42:01;;;;;;;40.88;26.15;;;7.70;64.20;;;;;;10906352;32;20023;-72
2022/03/12 21:48:06;;;;;;;22.27;18.02;;;7.70;63.90;;;;;;10905590;32;20061;-71
2022/03/12 21:54:08;;;;;;;31.80;23.60;;;7.60;63.80;;;;;;10909439;32;20031;-71
2022/03/12 22:00:23;;;;;;;28.00;18.25;;;7.50;64.10;;;;;;10909002;32;20023;-71
2022/03/12 22:06:29;;;;;;;22.37;16.15;;;7.40;64.10;;;;;;10904729;32;20410;-71
2022/03/12 22:12:43;;;;;;;22.85;16.58;;;7.30;64.40;;;;;;10908774;32;20051;-71
2022/03/12 22:18:45;;;;;;;19.90;13.80;;;7.20;64.90;;;;;;10883550;32;20027;-71
2022/03/12 22:24:47;;;;;;;32.40;24.12;;;7.10;65.10;;;;;;10867503;32;20399;-69
2022/03/12 22:30:50;;;;;;;37.72;27.23;;;7.10;65.50;;;;;;10868984;32;20028;-71
2022/03/12 22:36:53;;;;;;;37.88;26.10;;;7.20;65.10;;;;;;10870142;32;20051;-71
2022/03/12 22:42:56;;;;;;;22.23;17.08;;;7.10;65.10;;;;;;10852550;32;20340;-71
2022/03/12 22:49:06;;;;;;;39.97;30.88;;;7.00;64.90;;;;;;10865689;32;20020;-71
2022/03/12 22:55:19;;;;;;;30.45;18.58;;;6.90;65.00;;;;;;10869066;32;20050;-71
2022/03/12 23:01:31;;;;;;;35.35;29.73;;;6.90;64.90;;;;;;10869259;32;20042;-71
2022/03/12 23:13:57;;;;;;;23.40;19.52;;;6.70;65.00;;;;;;10868986;32;20027;-71
2022/03/12 23:20:00;;;;;;;18.00;13.62;;;6.70;65.10;;;;;;10899564;27;20039;-72
2022/03/12 23:26:04;;;;;;;25.15;18.77;;;6.60;65.60;;;;;;10906304;32;20023;-72
2022/03/12 23:32:07;;;;;;;27.65;17.98;;;6.50;65.50;;;;;;10906367;32;20027;-72
2022/03/12 23:38:09;;;;;;;24.23;16.52;;;6.40;65.90;;;;;;10906161;32;20042;-72
2022/03/12 23:44:11;;;;;;;24.60;16.48;;;6.30;66.00;;;;;;10892787;32;20020;-72
2022/03/12 23:50:15;;;;;;;23.85;16.55;;;6.20;66.20;;;;;;10905975;32;20062;-72
2022/03/12 23:56:17;;;;;;;42.88;28.65;;;6.20;66.20;;;;;;10890077;32;20054;-72
